VOI1081 MMMY-MMGL
Flight info
| Callsign | VOI1081 |
|---|---|
| Flight time | 1h 8m |
| Altitude | 36000 |
| Route | KERG1A/12 KERGA UT44 MEZCA MEZCA1B |
| Aircraft | A321/M-SDE3FGHIRWY/LB1 |
Departure
| Time | 2026-04-22 02:35 |
|---|---|
| Airport | Monterrey International Airport (MMMY) |
Arrival
| Time | 2026-04-22 03:43 |
|---|---|
| Airport | Guadalajara International Airport (MMGL) |
| Time | Latitude | Longitude | Altitude | Speed | Heading |
|---|---|---|---|---|---|
| 2026-04-22 02:09 | 25.78060 | -100.11852 | 1331 ft | 0 kts | 212° |
| 2026-04-22 02:22 | 25.78066 | -100.11848 | 1331 ft | 2 kts | 213° |
| 2026-04-22 02:22 | 25.78082 | -100.11835 | 1331 ft | 3 kts | 225° |
| 2026-04-22 02:23 | 25.78094 | -100.11818 | 1331 ft | 3 kts | 249° |
| 2026-04-22 02:23 | 25.78097 | -100.11800 | 1331 ft | 2 kts | 292° |
| 2026-04-22 02:23 | 25.78095 | -100.11794 | 1331 ft | 0 kts | 302° |
| 2026-04-22 02:26 | 25.78095 | -100.11795 | 1333 ft | 0 kts | 302° |
| 2026-04-22 02:26 | 25.78096 | -100.11796 | 1333 ft | 1 kts | 302° |
| 2026-04-22 02:27 | 25.78103 | -100.11809 | 1331 ft | 3 kts | 302° |
| 2026-04-22 02:27 | 25.78118 | -100.11836 | 1331 ft | 5 kts | 302° |
| 2026-04-22 02:27 | 25.78144 | -100.11869 | 1331 ft | 6 kts | 327° |
| 2026-04-22 02:27 | 25.78186 | -100.11861 | 1331 ft | 0 kts | 29° |
| 2026-04-22 02:28 | 25.78190 | -100.11858 | 1333 ft | 2 kts | 29° |
| 2026-04-22 02:28 | 25.78207 | -100.11847 | 1331 ft | 4 kts | 29° |
| 2026-04-22 02:28 | 25.78237 | -100.11828 | 1334 ft | 6 kts | 32° |
| 2026-04-22 02:28 | 25.78279 | -100.11797 | 1331 ft | 8 kts | 32° |
| 2026-04-22 02:29 | 25.78322 | -100.11769 | 1331 ft | 0 kts | 30° |
| 2026-04-22 02:33 | 25.78330 | -100.11763 | 1331 ft | 3 kts | 30° |
| 2026-04-22 02:33 | 25.78372 | -100.11734 | 1331 ft | 11 kts | 33° |
| 2026-04-22 02:34 | 25.78391 | -100.11681 | 1331 ft | 1 kts | 117° |
| 2026-04-22 02:34 | 25.78358 | -100.11615 | 1333 ft | 39 kts | 121° |
| 2026-04-22 02:35 | 25.78052 | -100.11059 | 1331 ft | 126 kts | 121° |
| 2026-04-22 02:35 | 25.77486 | -100.10023 | 1465 ft | 179 kts | 121° |
| 2026-04-22 02:35 | 25.76802 | -100.08780 | 2153 ft | 198 kts | 121° |
| 2026-04-22 02:35 | 25.76050 | -100.07427 | 2926 ft | 213 kts | 122° |
| 2026-04-22 02:36 | 25.75235 | -100.05953 | 3345 ft | 236 kts | 122° |
| 2026-04-22 02:36 | 25.74350 | -100.04343 | 3783 ft | 256 kts | 122° |
| 2026-04-22 02:36 | 25.73323 | -100.02697 | 4560 ft | 263 kts | 134° |
| 2026-04-22 02:36 | 25.71800 | -100.01568 | 5410 ft | 268 kts | 160° |
| 2026-04-22 02:37 | 25.69950 | -100.01259 | 6330 ft | 271 kts | 178° |
| 2026-04-22 02:37 | 25.68054 | -100.01234 | 7244 ft | 274 kts | 178° |
| 2026-04-22 02:37 | 25.66136 | -100.01220 | 8109 ft | 277 kts | 178° |
| 2026-04-22 02:39 | 25.56078 | -100.01136 | 10714 ft | 334 kts | 180° |
| 2026-04-22 02:39 | 25.53728 | -100.01110 | 11291 ft | 341 kts | 181° |
| 2026-04-22 02:39 | 25.51340 | -100.01084 | 11923 ft | 346 kts | 182° |
| 2026-04-22 02:40 | 25.48913 | -100.01056 | 12562 ft | 351 kts | 182° |
| 2026-04-22 02:40 | 25.46466 | -100.01028 | 13220 ft | 354 kts | 182° |
| 2026-04-22 02:40 | 25.43984 | -100.01002 | 13855 ft | 358 kts | 183° |
| 2026-04-22 02:40 | 25.41480 | -100.00975 | 14480 ft | 361 kts | 183° |
| 2026-04-22 02:41 | 25.38957 | -100.00947 | 15094 ft | 365 kts | 183° |
| 2026-04-22 02:41 | 25.36406 | -100.00920 | 15706 ft | 368 kts | 183° |
| 2026-04-22 02:41 | 25.33838 | -100.00894 | 16302 ft | 371 kts | 183° |
| 2026-04-22 02:41 | 25.31242 | -100.00868 | 16895 ft | 375 kts | 184° |
| 2026-04-22 02:42 | 25.28623 | -100.00840 | 17469 ft | 378 kts | 184° |
| 2026-04-22 02:42 | 25.25980 | -100.00808 | 18034 ft | 381 kts | 184° |
| 2026-04-22 02:42 | 25.23318 | -100.00776 | 18592 ft | 384 kts | 184° |
| 2026-04-22 02:42 | 25.20634 | -100.00746 | 19142 ft | 388 kts | 184° |
| 2026-04-22 02:43 | 25.17926 | -100.00717 | 19690 ft | 391 kts | 184° |
| 2026-04-22 02:43 | 25.15207 | -100.00689 | 20019 ft | 391 kts | 184° |
| 2026-04-22 02:43 | 25.12469 | -100.00661 | 20094 ft | 393 kts | 184° |
| 2026-04-22 02:43 | 25.09773 | -100.00634 | 20096 ft | 392 kts | 184° |
| 2026-04-22 02:44 | 25.07013 | -100.00604 | 20098 ft | 393 kts | 184° |
| 2026-04-22 02:44 | 25.04278 | -100.00574 | 20093 ft | 393 kts | 184° |
| 2026-04-22 02:44 | 25.01549 | -100.00544 | 20104 ft | 393 kts | 184° |
| 2026-04-22 02:44 | 24.98793 | -100.00519 | 20567 ft | 397 kts | 185° |
| 2026-04-22 02:45 | 24.96047 | -100.00771 | 21115 ft | 395 kts | 195° |
| 2026-04-22 02:45 | 24.93400 | -100.01539 | 21640 ft | 392 kts | 205° |
| 2026-04-22 02:45 | 24.90935 | -100.02786 | 22107 ft | 389 kts | 214° |
| 2026-04-22 02:45 | 24.88610 | -100.04311 | 22593 ft | 390 kts | 216° |
| 2026-04-22 02:46 | 24.86275 | -100.05844 | 23031 ft | 392 kts | 216° |
| 2026-04-22 02:46 | 24.83918 | -100.07387 | 23437 ft | 395 kts | 216° |
| 2026-04-22 02:46 | 24.81544 | -100.08939 | 23874 ft | 398 kts | 216° |
| 2026-04-22 02:46 | 24.79160 | -100.10495 | 24322 ft | 400 kts | 216° |
| 2026-04-22 02:47 | 24.76761 | -100.12062 | 24778 ft | 401 kts | 216° |
| 2026-04-22 02:47 | 24.74355 | -100.13632 | 25194 ft | 403 kts | 216° |
| 2026-04-22 02:47 | 24.71937 | -100.15208 | 25601 ft | 405 kts | 216° |
| 2026-04-22 02:47 | 24.69508 | -100.16791 | 26006 ft | 407 kts | 216° |
| 2026-04-22 02:48 | 24.67064 | -100.18379 | 26420 ft | 409 kts | 216° |
| 2026-04-22 02:48 | 24.64599 | -100.19982 | 26834 ft | 411 kts | 216° |
| 2026-04-22 02:48 | 24.62130 | -100.21588 | 27202 ft | 414 kts | 216° |
| 2026-04-22 02:48 | 24.59647 | -100.23202 | 27578 ft | 416 kts | 216° |
| 2026-04-22 02:49 | 24.57149 | -100.24824 | 27960 ft | 418 kts | 216° |
| 2026-04-22 02:49 | 24.54675 | -100.26430 | 28336 ft | 420 kts | 216° |
| 2026-04-22 02:49 | 24.52155 | -100.28066 | 28727 ft | 422 kts | 216° |
| 2026-04-22 02:49 | 24.49583 | -100.29733 | 29112 ft | 424 kts | 216° |
| 2026-04-22 02:50 | 24.47072 | -100.31360 | 29490 ft | 426 kts | 216° |
| 2026-04-22 02:50 | 24.44515 | -100.33015 | 29867 ft | 428 kts | 217° |
| 2026-04-22 02:50 | 24.41940 | -100.34681 | 30215 ft | 430 kts | 217° |
| 2026-04-22 02:50 | 24.39358 | -100.36347 | 30576 ft | 432 kts | 216° |
| 2026-04-22 02:51 | 24.36764 | -100.38023 | 30941 ft | 433 kts | 216° |
| 2026-04-22 02:51 | 24.34180 | -100.39696 | 31450 ft | 431 kts | 216° |
| 2026-04-22 02:51 | 24.31607 | -100.41361 | 31978 ft | 428 kts | 216° |
| 2026-04-22 02:51 | 24.29053 | -100.43010 | 32522 ft | 425 kts | 216° |
| 2026-04-22 02:52 | 24.26512 | -100.44650 | 33039 ft | 422 kts | 216° |
| 2026-04-22 02:52 | 24.23987 | -100.46276 | 33552 ft | 419 kts | 216° |
| 2026-04-22 02:52 | 24.21484 | -100.47889 | 34072 ft | 416 kts | 216° |
| 2026-04-22 02:52 | 24.18990 | -100.49498 | 34596 ft | 413 kts | 216° |
| 2026-04-22 02:53 | 24.16519 | -100.51092 | 35047 ft | 412 kts | 216° |
| 2026-04-22 02:53 | 24.14058 | -100.52682 | 35482 ft | 410 kts | 216° |
| 2026-04-22 02:53 | 24.11609 | -100.54264 | 35893 ft | 408 kts | 216° |
| 2026-04-22 02:53 | 24.09155 | -100.55849 | 36111 ft | 408 kts | 216° |
| 2026-04-22 02:54 | 24.06700 | -100.57431 | 36158 ft | 410 kts | 216° |
| 2026-04-22 02:54 | 24.01813 | -100.60571 | 36157 ft | 410 kts | 216° |
| 2026-04-22 02:55 | 23.96888 | -100.63733 | 36156 ft | 411 kts | 216° |
| 2026-04-22 02:55 | 23.91944 | -100.66909 | 36165 ft | 413 kts | 216° |
| 2026-04-22 02:56 | 23.86988 | -100.70089 | 36165 ft | 413 kts | 216° |
| 2026-04-22 02:56 | 23.82029 | -100.73272 | 36161 ft | 413 kts | 215° |
| 2026-04-22 02:57 | 23.77065 | -100.76454 | 36160 ft | 414 kts | 215° |
| 2026-04-22 02:57 | 23.72096 | -100.79628 | 36164 ft | 415 kts | 215° |
| 2026-04-22 02:58 | 23.67042 | -100.82857 | 36202 ft | 426 kts | 215° |
| 2026-04-22 02:58 | 23.61906 | -100.86131 | 36201 ft | 428 kts | 215° |
| 2026-04-22 02:59 | 23.56756 | -100.89411 | 36211 ft | 429 kts | 215° |
| 2026-04-22 02:59 | 23.51601 | -100.92705 | 36210 ft | 429 kts | 216° |
| 2026-04-22 03:00 | 23.46779 | -100.96451 | 36210 ft | 426 kts | 220° |
| 2026-04-22 03:00 | 23.41998 | -101.00255 | 36209 ft | 426 kts | 220° |
| 2026-04-22 03:01 | 23.37217 | -101.04056 | 36225 ft | 426 kts | 220° |
| 2026-04-22 03:01 | 23.32423 | -101.07856 | 36233 ft | 426 kts | 220° |
| 2026-04-22 03:02 | 23.27620 | -101.11650 | 36241 ft | 427 kts | 220° |
| 2026-04-22 03:02 | 23.22811 | -101.15447 | 36253 ft | 427 kts | 220° |
| 2026-04-22 03:03 | 23.18025 | -101.19214 | 36230 ft | 428 kts | 220° |
| 2026-04-22 03:03 | 23.13211 | -101.23014 | 36242 ft | 428 kts | 220° |
| 2026-04-22 03:04 | 23.08395 | -101.26838 | 36255 ft | 429 kts | 220° |
| 2026-04-22 03:04 | 23.03570 | -101.30657 | 36270 ft | 429 kts | 220° |
| 2026-04-22 03:05 | 22.98726 | -101.34464 | 36277 ft | 430 kts | 220° |
| 2026-04-22 03:05 | 22.93879 | -101.38271 | 36282 ft | 430 kts | 220° |
| 2026-04-22 03:06 | 22.89037 | -101.42076 | 36287 ft | 430 kts | 220° |
| 2026-04-22 03:06 | 22.84189 | -101.45891 | 36291 ft | 430 kts | 220° |
| 2026-04-22 03:07 | 22.79369 | -101.49680 | 36297 ft | 430 kts | 220° |
| 2026-04-22 03:07 | 22.74486 | -101.53509 | 36298 ft | 431 kts | 220° |
| 2026-04-22 03:08 | 22.69651 | -101.57288 | 36299 ft | 431 kts | 220° |
| 2026-04-22 03:08 | 22.64785 | -101.61098 | 36297 ft | 431 kts | 220° |
| 2026-04-22 03:09 | 22.59914 | -101.64906 | 36305 ft | 432 kts | 220° |
| 2026-04-22 03:09 | 22.55039 | -101.68710 | 36298 ft | 432 kts | 220° |
| 2026-04-22 03:10 | 22.50156 | -101.72518 | 36294 ft | 433 kts | 220° |
| 2026-04-22 03:10 | 22.45274 | -101.76325 | 36291 ft | 433 kts | 220° |
| 2026-04-22 03:11 | 22.40390 | -101.80133 | 36289 ft | 433 kts | 220° |
| 2026-04-22 03:11 | 22.35503 | -101.83941 | 36293 ft | 433 kts | 220° |
| 2026-04-22 03:12 | 22.30608 | -101.87754 | 36297 ft | 434 kts | 220° |
| 2026-04-22 03:12 | 22.23261 | -101.93464 | 36299 ft | 434 kts | 220° |
| 2026-04-22 03:13 | 22.18348 | -101.97267 | 36322 ft | 434 kts | 219° |
| 2026-04-22 03:13 | 22.13454 | -102.01060 | 36337 ft | 433 kts | 219° |
| 2026-04-22 03:14 | 22.08570 | -102.04850 | 36334 ft | 431 kts | 219° |
| 2026-04-22 03:14 | 22.03699 | -102.08620 | 36342 ft | 431 kts | 219° |
| 2026-04-22 03:15 | 21.98832 | -102.12379 | 36337 ft | 429 kts | 219° |
| 2026-04-22 03:15 | 21.94045 | -102.16030 | 36337 ft | 418 kts | 218° |
| 2026-04-22 03:16 | 21.89175 | -102.19453 | 36346 ft | 417 kts | 216° |
| 2026-04-22 03:16 | 21.84262 | -102.22797 | 36337 ft | 418 kts | 216° |
| 2026-04-22 03:17 | 21.79358 | -102.26169 | 36342 ft | 418 kts | 217° |
| 2026-04-22 03:17 | 21.74466 | -102.29579 | 36337 ft | 419 kts | 217° |
| 2026-04-22 03:18 | 21.72851 | -102.30705 | 36071 ft | 418 kts | 217° |
| 2026-04-22 03:18 | 21.69725 | -102.33065 | 34861 ft | 407 kts | 221° |
| 2026-04-22 03:18 | 21.68234 | -102.34318 | 33679 ft | 417 kts | 221° |
| 2026-04-22 03:18 | 21.65925 | -102.36275 | 32197 ft | 425 kts | 222° |
| 2026-04-22 03:19 | 21.63602 | -102.38247 | 30953 ft | 425 kts | 223° |
| 2026-04-22 03:19 | 21.61287 | -102.40208 | 29898 ft | 421 kts | 223° |
| 2026-04-22 03:19 | 21.59005 | -102.42131 | 29429 ft | 413 kts | 223° |
| 2026-04-22 03:19 | 21.56753 | -102.44024 | 28896 ft | 409 kts | 223° |
| 2026-04-22 03:20 | 21.54525 | -102.45896 | 28362 ft | 405 kts | 222° |
| 2026-04-22 03:20 | 21.52316 | -102.47755 | 27850 ft | 401 kts | 222° |
| 2026-04-22 03:20 | 21.50132 | -102.49597 | 27346 ft | 397 kts | 222° |
| 2026-04-22 03:20 | 21.47971 | -102.51421 | 26870 ft | 393 kts | 222° |
| 2026-04-22 03:21 | 21.45827 | -102.53225 | 26390 ft | 390 kts | 222° |
| 2026-04-22 03:21 | 21.43701 | -102.55008 | 25933 ft | 387 kts | 221° |
| 2026-04-22 03:21 | 21.41590 | -102.56782 | 25480 ft | 384 kts | 221° |
| 2026-04-22 03:21 | 21.39497 | -102.58542 | 25036 ft | 381 kts | 221° |
| 2026-04-22 03:22 | 21.37419 | -102.60290 | 24599 ft | 378 kts | 221° |
| 2026-04-22 03:22 | 21.35358 | -102.62021 | 24333 ft | 377 kts | 221° |
| 2026-04-22 03:22 | 21.33289 | -102.63755 | 24321 ft | 379 kts | 221° |
| 2026-04-22 03:22 | 21.31206 | -102.65500 | 24331 ft | 380 kts | 221° |
| 2026-04-22 03:23 | 21.29119 | -102.67249 | 24331 ft | 381 kts | 221° |
| 2026-04-22 03:23 | 21.27058 | -102.68977 | 24332 ft | 381 kts | 221° |
| 2026-04-22 03:23 | 21.24969 | -102.70727 | 24311 ft | 381 kts | 221° |
| 2026-04-22 03:23 | 21.22846 | -102.72505 | 24002 ft | 384 kts | 221° |
| 2026-04-22 03:24 | 21.20714 | -102.74293 | 23050 ft | 394 kts | 220° |
| 2026-04-22 03:24 | 21.18576 | -102.76083 | 22373 ft | 396 kts | 220° |
| 2026-04-22 03:24 | 21.16411 | -102.77891 | 21737 ft | 391 kts | 220° |
| 2026-04-22 03:24 | 21.14229 | -102.79599 | 20730 ft | 388 kts | 212° |
| 2026-04-22 03:25 | 21.11765 | -102.80753 | 19745 ft | 386 kts | 197° |
| 2026-04-22 03:25 | 21.09124 | -102.81193 | 18784 ft | 383 kts | 182° |
| 2026-04-22 03:25 | 21.06484 | -102.80948 | 17794 ft | 379 kts | 173° |
| 2026-04-22 03:25 | 21.03884 | -102.80553 | 16808 ft | 376 kts | 173° |
| 2026-04-22 03:26 | 21.01291 | -102.80167 | 16218 ft | 375 kts | 173° |
| 2026-04-22 03:26 | 20.98717 | -102.79789 | 15690 ft | 372 kts | 173° |
| 2026-04-22 03:26 | 20.96164 | -102.79413 | 15172 ft | 369 kts | 173° |
| 2026-04-22 03:26 | 20.93638 | -102.79021 | 14685 ft | 365 kts | 172° |
| 2026-04-22 03:27 | 20.91138 | -102.78618 | 14194 ft | 362 kts | 172° |
| 2026-04-22 03:27 | 20.88662 | -102.78213 | 13706 ft | 358 kts | 172° |
| 2026-04-22 03:27 | 20.86200 | -102.77811 | 13230 ft | 356 kts | 172° |
| 2026-04-22 03:27 | 20.83785 | -102.77417 | 13008 ft | 344 kts | 172° |
| 2026-04-22 03:28 | 20.81514 | -102.77047 | 13010 ft | 316 kts | 172° |
| 2026-04-22 03:28 | 20.79420 | -102.76708 | 13019 ft | 292 kts | 173° |
| 2026-04-22 03:28 | 20.77489 | -102.76398 | 13015 ft | 270 kts | 173° |
| 2026-04-22 03:28 | 20.75677 | -102.76107 | 13023 ft | 261 kts | 173° |
| 2026-04-22 03:29 | 20.73891 | -102.75822 | 13019 ft | 259 kts | 173° |
| 2026-04-22 03:29 | 20.72044 | -102.75414 | 13023 ft | 284 kts | 162° |
| 2026-04-22 03:29 | 20.70235 | -102.74489 | 13019 ft | 293 kts | 146° |
| 2026-04-22 03:29 | 20.68586 | -102.73178 | 13014 ft | 296 kts | 143° |
| 2026-04-22 03:30 | 20.66942 | -102.71855 | 13007 ft | 296 kts | 143° |
| 2026-04-22 03:30 | 20.65293 | -102.70537 | 13011 ft | 296 kts | 143° |
| 2026-04-22 03:30 | 20.63643 | -102.69219 | 13006 ft | 296 kts | 143° |
| 2026-04-22 03:30 | 20.61993 | -102.67905 | 13010 ft | 296 kts | 143° |
| 2026-04-22 03:31 | 20.60308 | -102.66645 | 12988 ft | 297 kts | 152° |
| 2026-04-22 03:31 | 20.58361 | -102.65985 | 12748 ft | 292 kts | 176° |
| 2026-04-22 03:31 | 20.56369 | -102.66170 | 12691 ft | 288 kts | 199° |
| 2026-04-22 03:31 | 20.54597 | -102.67124 | 12626 ft | 285 kts | 221° |
| 2026-04-22 03:32 | 20.53305 | -102.68690 | 12563 ft | 281 kts | 243° |
| 2026-04-22 03:32 | 20.52506 | -102.70544 | 12500 ft | 270 kts | 249° |
| 2026-04-22 03:32 | 20.51778 | -102.72344 | 12442 ft | 258 kts | 249° |
| 2026-04-22 03:32 | 20.51082 | -102.74060 | 12380 ft | 247 kts | 249° |
| 2026-04-22 03:33 | 20.50424 | -102.75683 | 12321 ft | 237 kts | 249° |
| 2026-04-22 03:33 | 20.49769 | -102.77297 | 12269 ft | 232 kts | 249° |
| 2026-04-22 03:33 | 20.49128 | -102.78874 | 12217 ft | 231 kts | 249° |
| 2026-04-22 03:33 | 20.48488 | -102.80443 | 12170 ft | 231 kts | 249° |
| 2026-04-22 03:34 | 20.47857 | -102.81991 | 12116 ft | 230 kts | 249° |
| 2026-04-22 03:34 | 20.47219 | -102.83558 | 12063 ft | 230 kts | 249° |
| 2026-04-22 03:34 | 20.46575 | -102.85147 | 11955 ft | 238 kts | 249° |
| 2026-04-22 03:34 | 20.45911 | -102.86775 | 11689 ft | 240 kts | 249° |
| 2026-04-22 03:35 | 20.45246 | -102.88404 | 11404 ft | 240 kts | 249° |
| 2026-04-22 03:35 | 20.44582 | -102.90036 | 11107 ft | 240 kts | 248° |
| 2026-04-22 03:35 | 20.43917 | -102.91667 | 10811 ft | 240 kts | 248° |
| 2026-04-22 03:35 | 20.43250 | -102.93301 | 10513 ft | 240 kts | 248° |
| 2026-04-22 03:36 | 20.42582 | -102.94933 | 10211 ft | 240 kts | 248° |
| 2026-04-22 03:36 | 20.41917 | -102.96555 | 9908 ft | 237 kts | 248° |
| 2026-04-22 03:36 | 20.41261 | -102.98157 | 9606 ft | 234 kts | 247° |
| 2026-04-22 03:36 | 20.40656 | -102.99727 | 9353 ft | 224 kts | 254° |
| 2026-04-22 03:37 | 20.40386 | -103.01341 | 9063 ft | 220 kts | 268° |
| 2026-04-22 03:37 | 20.40500 | -103.02955 | 8720 ft | 216 kts | 282° |
| 2026-04-22 03:37 | 20.40966 | -103.04440 | 8650 ft | 212 kts | 295° |
| 2026-04-22 03:37 | 20.41585 | -103.05891 | 8700 ft | 215 kts | 294° |
| 2026-04-22 03:38 | 20.42179 | -103.07304 | 8680 ft | 200 kts | 294° |
| 2026-04-22 03:38 | 20.42736 | -103.08632 | 8500 ft | 192 kts | 294° |
| 2026-04-22 03:38 | 20.43274 | -103.09911 | 8337 ft | 187 kts | 293° |
| 2026-04-22 03:38 | 20.43802 | -103.11168 | 8175 ft | 185 kts | 294° |
| 2026-04-22 03:39 | 20.44327 | -103.12415 | 8021 ft | 184 kts | 293° |
| 2026-04-22 03:39 | 20.44849 | -103.13656 | 7870 ft | 183 kts | 294° |
| 2026-04-22 03:39 | 20.45365 | -103.14896 | 7706 ft | 183 kts | 293° |
| 2026-04-22 03:39 | 20.45881 | -103.16131 | 7488 ft | 182 kts | 293° |
| 2026-04-22 03:40 | 20.46397 | -103.17360 | 7274 ft | 180 kts | 293° |
| 2026-04-22 03:40 | 20.46903 | -103.18562 | 7046 ft | 175 kts | 292° |
| 2026-04-22 03:40 | 20.47396 | -103.19731 | 6840 ft | 171 kts | 292° |
| 2026-04-22 03:40 | 20.47884 | -103.20890 | 6628 ft | 173 kts | 292° |
| 2026-04-22 03:41 | 20.48374 | -103.22056 | 6409 ft | 171 kts | 293° |
| 2026-04-22 03:41 | 20.48859 | -103.23208 | 6200 ft | 166 kts | 292° |
| 2026-04-22 03:41 | 20.49316 | -103.24291 | 5998 ft | 156 kts | 292° |
| 2026-04-22 03:41 | 20.49749 | -103.25336 | 5783 ft | 153 kts | 291° |
| 2026-04-22 03:42 | 20.50180 | -103.26369 | 5642 ft | 152 kts | 293° |
| 2026-04-22 03:42 | 20.50622 | -103.27390 | 5445 ft | 151 kts | 292° |
| 2026-04-22 03:42 | 20.51052 | -103.28416 | 5249 ft | 152 kts | 293° |
| 2026-04-22 03:42 | 20.51486 | -103.29443 | 5081 ft | 153 kts | 293° |
| 2026-04-22 03:43 | 20.51890 | -103.30422 | 5020 ft | 127 kts | 293° |
| 2026-04-22 03:43 | 20.52177 | -103.31112 | 5025 ft | 77 kts | 293° |
| 2026-04-22 03:43 | 20.52336 | -103.31453 | 5022 ft | 25 kts | 316° |
| 2026-04-22 03:43 | 20.52442 | -103.31528 | 5020 ft | 18 kts | 321° |
| 2026-04-22 03:44 | 20.52527 | -103.31592 | 5021 ft | 8 kts | 339° |
| 2026-04-22 03:44 | 20.52583 | -103.31582 | 5020 ft | 9 kts | 28° |
| 2026-04-22 03:44 | 20.52648 | -103.31548 | 5019 ft | 11 kts | 24° |
| 2026-04-22 03:44 | 20.52677 | -103.31529 | 5020 ft | 0 kts | 46° |
| 2026-04-22 03:45 | 20.52678 | -103.31527 | 5018 ft | 1 kts | 59° |
| 2026-04-22 03:45 | 20.52678 | -103.31526 | 5020 ft | 0 kts | 59° |
| 2026-04-22 03:45 | 20.52681 | -103.31527 | 5019 ft | 2 kts | 40° |
| 2026-04-22 03:46 | 20.52679 | -103.31528 | 5020 ft | 0 kts | 51° |
| 2026-04-22 03:46 | 20.52679 | -103.31527 | 5020 ft | 0 kts | 54° |